Time;durP1;ratioP1;P1;durP2;ratioP2;P2;SDS_P1;SDS_P2;PMS_P1;PMS_P2;Temp;Humidity;BMP_temperature;BMP_pressure;BME280_temperature;BME280_humidity;BME280_pressure;Samples;Min_cycle;Max_cycle;Signal;HPM_P1;HPM_P2
2023/10/16 00:01:09;;;;;;;6.22;3.45;;;;;;;4.42;100.00;101681.94;4999073;28;20037;-73
2023/10/16 00:03:52;;;;;;;8.00;3.88;;;;;;;4.41;100.00;101681.06;5017523;28;20049;-73
2023/10/16 00:06:18;;;;;;;7.43;3.67;;;;;;;4.42;100.00;101676.63;4999778;28;20046;-73
2023/10/16 00:08:47;;;;;;;8.20;3.92;;;;;;;4.39;100.00;101677.69;4999970;28;20451;-73
2023/10/16 00:11:16;;;;;;;9.75;3.22;;;;;;;4.34;100.00;101669.19;5015806;28;20116;-73
2023/10/16 00:13:44;;;;;;;7.75;4.15;;;;;;;4.35;100.00;101673.56;5032548;28;20087;-73
2023/10/16 00:16:17;;;;;;;7.82;4.35;;;;;;;4.36;100.00;101661.09;4999860;28;20030;-72
2023/10/16 00:18:43;;;;;;;;;;;;;;;4.40;100.00;101668.75;5000842;28;20534;-73
2023/10/16 00:21:09;;;;;;;6.15;3.70;;;;;;;4.45;100.00;101670.22;4999701;28;19909;-73
2023/10/16 00:23:40;;;;;;;7.00;3.70;;;;;;;4.47;100.00;101669.13;5000471;28;20395;-73
2023/10/16 00:26:15;;;;;;;5.45;3.78;;;;;;;4.48;100.00;101670.84;5000495;28;20045;-72
2023/10/16 00:28:44;;;;;;;6.23;3.30;;;;;;;4.51;100.00;101664.44;4968490;28;20079;-73
2023/10/16 00:31:22;;;;;;;8.10;3.67;;;;;;;4.57;100.00;101666.63;5016324;28;20275;-73
2023/10/16 00:33:50;;;;;;;4.78;3.42;;;;;;;4.68;100.00;101660.50;5016495;28;20044;-73
2023/10/16 00:36:16;;;;;;;6.70;3.33;;;;;;;4.78;100.00;101651.69;4999064;28;20503;-73
2023/10/16 00:38:47;;;;;;;6.72;3.60;;;;;;;4.81;100.00;101656.78;5031919;28;20061;-73
2023/10/16 00:41:24;;;;;;;7.32;2.63;;;;;;;4.81;100.00;101654.13;5014288;28;20471;-73
2023/10/16 00:43:50;;;;;;;5.00;3.38;;;;;;;4.85;100.00;101647.59;5033095;28;20430;-73
2023/10/16 00:46:29;;;;;;;7.55;3.83;;;;;;;4.87;100.00;101655.50;5003625;28;20033;-72
2023/10/16 00:48:55;;;;;;;6.97;3.38;;;;;;;4.86;100.00;101651.09;5034240;28;20033;-73
2023/10/16 00:51:21;;;;;;;6.30;3.92;;;;;;;4.83;100.00;101646.88;5004022;28;20041;-73
2023/10/16 00:53:47;;;;;;;6.45;3.92;;;;;;;4.83;100.00;101648.69;5002828;28;20030;-73
2023/10/16 00:56:14;;;;;;;6.10;3.65;;;;;;;4.82;100.00;101642.50;5003372;28;20029;-73
2023/10/16 00:58:40;;;;;;;6.97;3.35;;;;;;;4.77;100.00;101639.34;5002681;28;20041;-74
2023/10/16 01:01:12;;;;;;;4.93;3.38;;;;;;;4.73;100.00;101645.00;5019052;28;20035;-73
2023/10/16 01:03:40;;;;;;;6.35;3.63;;;;;;;4.74;100.00;101644.91;5019478;28;20434;-73
2023/10/16 01:06:15;;;;;;;6.35;3.78;;;;;;;4.71;100.00;101639.81;5018732;28;20129;-73
2023/10/16 01:08:52;;;;;;;6.10;3.60;;;;;;;4.71;100.00;101641.59;5016911;28;20045;-74
2023/10/16 01:11:21;;;;;;;3.83;3.08;;;;;;;4.69;100.00;101636.41;5033197;28;20038;-73
2023/10/16 01:13:50;;;;;;;6.07;3.60;;;;;;;4.68;100.00;101624.03;5035107;28;20483;-73
2023/10/16 01:16:19;;;;;;;6.80;3.70;;;;;;;4.69;100.00;101625.75;5018906;28;20037;-73
2023/10/16 01:18:47;;;;;;;6.32;3.50;;;;;;;4.62;100.00;101620.03;5018875;28;20029;-74
2023/10/16 01:21:14;;;;;;;4.63;3.22;;;;;;;4.60;100.00;101619.31;5015739;28;20052;-73
2023/10/16 01:23:41;;;;;;;6.45;3.60;;;;;;;4.59;100.00;101616.75;5015878;28;20030;-72
2023/10/16 01:26:13;;;;;;;5.97;3.78;;;;;;;4.57;100.00;101621.34;5002366;28;20037;-73
2023/10/16 01:28:39;;;;;;;6.85;3.78;;;;;;;4.54;100.00;101614.44;5018640;28;20041;-74
2023/10/16 01:31:05;;;;;;;6.05;3.80;;;;;;;4.61;100.00;101609.50;5034618;28;20029;-73
2023/10/16 01:33:33;;;;;;;7.93;3.88;;;;;;;4.59;100.00;101612.28;5002130;28;20041;-73
2023/10/16 01:36:07;;;;;;;5.65;3.67;;;;;;;4.61;100.00;101607.69;5018603;28;20132;-73
2023/10/16 01:38:32;;;;;;;6.72;4.20;;;;;;;4.61;100.00;101613.03;5003318;28;20072;-73
2023/10/16 01:43:28;;;;;;;9.75;4.63;;;;;;;4.76;100.00;101610.13;5014244;28;20479;-73
2023/10/16 01:45:58;;;;;;;6.82;3.70;;;;;;;4.86;100.00;101603.16;5034954;28;20040;-73
2023/10/16 01:48:30;;;;;;;7.35;3.40;;;;;;;4.89;100.00;101600.25;5018471;28;20029;-73
2023/10/16 01:50:56;;;;;;;7.32;3.72;;;;;;;4.90;100.00;101601.97;5034766;28;20483;-73
2023/10/16 01:53:32;;;;;;;7.13;3.25;;;;;;;4.89;100.00;101604.72;5017593;28;20029;-73
2023/10/16 01:55:58;;;;;;;7.65;3.92;;;;;;;4.92;100.00;101599.16;5002752;28;20044;-73
2023/10/16 01:58:25;;;;;;;9.18;3.97;;;;;;;4.95;100.00;101604.25;5002082;28;20042;-73
2023/10/16 02:00:55;;;;;;;8.98;4.55;;;;;;;4.89;100.00;101596.72;4996378;28;20034;-74
2023/10/16 02:03:22;;;;;;;5.20;3.42;;;;;;;4.92;100.00;101593.81;5017217;28;20032;-73
2023/10/16 02:05:48;;;;;;;5.93;3.78;;;;;;;4.92;100.00;101586.69;5033258;28;20033;-73
2023/10/16 02:08:14;;;;;;;7.05;3.95;;;;;;;4.95;100.00;101588.25;5001965;28;20033;-73
2023/10/16 02:10:41;;;;;;;7.75;4.80;;;;;;;5.00;100.00;101583.41;5018139;28;20053;-73
2023/10/16 02:13:08;;;;;;;7.97;4.00;;;;;;;4.99;100.00;101582.56;5033867;28;20030;-73
2023/10/16 02:15:36;;;;;;;6.85;3.67;;;;;;;5.02;100.00;101584.16;5034028;28;20043;-73
2023/10/16 02:18:09;;;;;;;;;;;;;;;5.01;100.00;101583.31;5019534;28;20472;-73
2023/10/16 02:20:38;;;;;;;9.23;4.90;;;;;;;4.99;100.00;101576.41;5000897;28;19971;-73
2023/10/16 02:23:08;;;;;;;6.25;3.78;;;;;;;4.99;100.00;101573.72;5002025;28;20041;-73
2023/10/16 02:25:37;;;;;;;6.00;4.13;;;;;;;5.02;100.00;101584.16;5018179;28;20041;-72
2023/10/16 02:28:13;;;;;;;6.63;3.80;;;;;;;5.07;100.00;101574.81;5017078;28;20434;-73
2023/10/16 02:30:41;;;;;;;8.32;4.32;;;;;;;5.15;100.00;101573.38;5002424;28;20034;-73
2023/10/16 02:33:30;;;;;;;5.75;3.80;;;;;;;5.20;100.00;101572.03;5033117;28;20029;-73
2023/10/16 02:35:57;;;;;;;8.85;3.80;;;;;;;5.27;100.00;101577.75;5004048;28;20041;-73
2023/10/16 02:38:28;;;;;;;7.05;4.10;;;;;;;5.32;100.00;101577.38;5013992;28;20049;-73
2023/10/16 02:41:00;;;;;;;8.65;4.18;;;;;;;5.34;100.00;101575.44;4997755;28;20141;-73
2023/10/16 02:43:29;;;;;;;7.57;4.00;;;;;;;5.35;100.00;101574.50;5029285;28;20042;-74
2023/10/16 02:45:56;;;;;;;6.90;4.57;;;;;;;5.31;100.00;101570.34;5016530;28;20060;-73
2023/10/16 02:48:22;;;;;;;7.88;4.70;;;;;;;5.28;100.00;101564.28;5017197;28;20042;-73
2023/10/16 02:50:57;;;;;;;9.98;6.47;;;;;;;5.30;100.00;101566.84;5016896;28;20446;-73
2023/10/16 02:53:27;;;;;;;9.55;4.18;;;;;;;5.29;100.00;101562.47;5001074;28;20099;-73
2023/10/16 02:55:57;;;;;;;8.73;4.20;;;;;;;5.24;100.00;101559.34;5033415;28;20044;-73
2023/10/16 02:58:25;;;;;;;8.30;3.80;;;;;;;5.18;100.00;101563.31;5017481;28;20041;-73
2023/10/16 03:00:53;;;;;;;6.78;4.10;;;;;;;5.18;100.00;101557.13;5017190;28;20099;-73
2023/10/16 03:03:27;;;;;;;7.72;4.07;;;;;;;5.18;100.00;101549.13;4999834;28;20064;-73
2023/10/16 03:05:59;;;;;;;7.07;4.40;;;;;;;5.23;100.00;101550.47;5000417;28;20094;-73
2023/10/16 03:08:36;;;;;;;9.90;4.78;;;;;;;5.27;100.00;101551.09;4997477;28;20053;-73
2023/10/16 03:11:13;;;;;;;7.28;4.35;;;;;;;5.36;100.00;101549.50;5018886;28;20075;-74
2023/10/16 03:13:43;;;;;;;5.45;3.55;;;;;;;5.41;100.00;101548.16;5016092;28;20034;-73
2023/10/16 03:16:23;;;;;;;7.55;3.67;;;;;;;5.48;100.00;101543.19;5022416;28;20037;-73
2023/10/16 03:18:49;;;;;;;7.82;3.63;;;;;;;5.51;100.00;101538.44;5017665;28;20484;-74
2023/10/16 03:23:44;;;;;;;7.75;4.10;;;;;;;5.58;100.00;101538.78;5015710;28;20037;-73
2023/10/16 03:26:25;;;;;;;6.40;4.07;;;;;;;5.60;100.00;101539.53;5032562;28;20057;-73
2023/10/16 03:29:00;;;;;;;7.80;4.38;;;;;;;5.60;100.00;101538.69;5003015;28;20553;-74
2023/10/16 03:31:27;;;;;;;7.35;3.47;;;;;;;5.59;100.00;101535.16;5033310;28;20026;-74
2023/10/16 03:33:56;;;;;;;7.80;3.75;;;;;;;5.57;100.00;101529.09;5016335;28;20037;-73
2023/10/16 03:36:25;;;;;;;8.73;4.47;;;;;;;5.56;100.00;101527.41;5032856;28;20036;-73
2023/10/16 03:38:54;;;;;;;5.22;3.70;;;;;;;5.55;100.00;101528.38;5016353;28;20037;-74
2023/10/16 03:41:33;;;;;;;7.35;4.90;;;;;;;5.54;100.00;101523.19;5031714;28;20083;-73
2023/10/16 03:44:33;;;;;;;7.55;4.55;;;;;;;5.51;100.00;101524.28;5032553;28;20562;-73
2023/10/16 03:46:52;;;;;;;7.10;3.72;;;;;;;5.46;100.00;101526.47;5029948;28;20482;-73
2023/10/16 03:49:18;;;;;;;6.93;4.53;;;;;;;5.45;100.00;101530.09;5022911;28;20053;-73
2023/10/16 03:52:12;;;;;;;6.13;3.45;;;;;;;5.40;100.00;101533.16;5015902;28;20038;-73
2023/10/16 03:54:39;;;;;;;7.05;3.95;;;;;;;5.39;100.00;101530.59;5016249;28;20025;-73
2023/10/16 03:57:13;;;;;;;8.10;3.72;;;;;;;5.37;100.00;101527.19;5032557;28;20029;-73
2023/10/16 03:59:42;;;;;;;7.55;4.43;;;;;;;5.35;100.00;101516.66;5015148;28;20120;-73
2023/10/16 04:02:14;;;;;;;8.52;4.35;;;;;;;5.32;100.00;101514.25;5013892;28;20072;-72
2023/10/16 04:04:39;;;;;;;7.50;3.72;;;;;;;5.32;100.00;101516.03;5021545;28;20030;-72
2023/10/16 04:07:05;;;;;;;9.10;4.35;;;;;;;5.27;100.00;101505.75;4999043;28;20217;-73
2023/10/16 04:09:33;;;;;;;6.15;4.05;;;;;;;5.27;100.00;101503.09;5016163;28;20025;-73
2023/10/16 04:12:06;;;;;;;8.75;4.20;;;;;;;5.25;100.00;101500.53;5032942;28;20386;-72
2023/10/16 04:14:55;;;;;;;11.05;5.07;;;;;;;5.22;100.00;101500.78;5032429;28;20042;-73
2023/10/16 04:17:26;;;;;;;6.70;4.47;;;;;;;5.20;100.00;101489.41;5018510;28;20049;-73
2023/10/16 04:20:42;;;;;;;10.57;4.60;;;;;;;5.19;100.00;101495.72;4999574;28;20091;-73
2023/10/16 04:22:57;;;;;;;6.18;4.38;;;;;;;5.17;100.00;101489.66;5019810;28;20045;-73
2023/10/16 04:25:31;;;;;;;8.35;4.20;;;;;;;5.17;100.00;101486.97;5000275;28;20045;-73
2023/10/16 04:28:18;;;;;;;8.68;4.47;;;;;;;5.12;100.00;101481.16;5016476;28;20025;-73
2023/10/16 04:30:47;;;;;;;5.65;3.42;;;;;;;5.05;100.00;101477.28;5032539;28;20108;-73
2023/10/16 04:33:15;;;;;;;5.97;3.75;;;;;;;4.98;100.00;101465.44;5015434;28;20021;-73
2023/10/16 04:43:51;;;;;;;6.35;4.32;;;;;;;4.67;100.00;101470.50;5019089;28;20126;-73
2023/10/16 04:46:23;;;;;;;7.50;3.95;;;;;;;4.63;100.00;101466.38;5030800;28;20040;-73
2023/10/16 04:48:48;;;;;;;9.38;3.60;;;;;;;4.57;100.00;101467.72;5016533;28;20036;-73
2023/10/16 04:51:20;;;;;;;5.28;3.47;;;;;;;4.55;100.00;101463.47;4999643;28;20030;-73
2023/10/16 04:53:58;;;;;;;6.18;3.40;;;;;;;4.54;100.00;101461.78;5033176;28;20034;-73
2023/10/16 04:56:57;;;;;;;6.00;2.88;;;;;;;4.50;100.00;101452.31;5000228;28;20038;-73
2023/10/16 05:05:10;;;;;;;7.75;3.40;;;;;;;4.56;100.00;101441.22;5017027;28;20045;-72
2023/10/16 05:07:45;;;;;;;7.80;3.25;;;;;;;4.52;100.00;101437.09;5016816;28;20030;-73
2023/10/16 05:10:17;;;;;;;6.03;3.20;;;;;;;4.51;100.00;101443.38;5016386;28;20073;-73
2023/10/16 05:15:41;;;;;;;6.68;3.47;;;;;;;4.39;100.00;101439.84;5020632;28;20141;-73
2023/10/16 05:18:20;;;;;;;9.05;3.13;;;;;;;4.34;100.00;101429.56;5013001;28;20128;-73
2023/10/16 06:15:37;;;;;;;7.35;4.70;;;;;;;3.82;100.00;101363.53;5014356;28;20039;-73
2023/10/16 06:18:06;;;;;;;8.75;5.18;;;;;;;3.77;100.00;101363.03;5001420;28;20037;-73
2023/10/16 06:20:32;;;;;;;8.52;4.35;;;;;;;3.82;100.00;101358.22;5015859;28;20037;-73
2023/10/16 06:22:58;;;;;;;12.05;5.38;;;;;;;3.83;100.00;101357.25;5016654;28;20037;-73
2023/10/16 06:25:28;;;;;;;9.48;5.15;;;;;;;3.79;100.00;101364.63;4998731;28;20391;-72
2023/10/16 06:27:55;;;;;;;9.75;5.10;;;;;;;3.74;100.00;101353.47;5010657;28;20472;-73
2023/10/16 06:30:23;;;;;;;6.30;3.47;;;;;;;3.69;100.00;101364.47;4983659;28;20076;-72
2023/10/16 06:32:52;;;;;;;9.95;6.05;;;;;;;3.63;100.00;101358.78;5000853;28;20113;-73
2023/10/16 06:35:26;;;;;;;12.02;5.18;;;;;;;3.57;100.00;101359.22;5003664;28;20041;-73
2023/10/16 06:37:52;;;;;;;7.32;4.35;;;;;;;3.62;100.00;101354.41;4999550;28;20114;-73
2023/10/16 06:40:24;;;;;;;8.23;3.70;;;;;;;3.68;100.00;101351.31;5000918;28;20071;-73
2023/10/16 06:42:54;;;;;;;10.98;4.68;;;;;;;3.62;100.00;101354.41;4997993;28;20021;-73
2023/10/16 06:45:40;;;;;;;8.60;4.65;;;;;;;3.50;100.00;101348.22;5001654;28;20085;-73
2023/10/16 06:48:14;;;;;;;11.07;5.30;;;;;;;3.50;100.00;101343.75;5002764;28;20044;-74
2023/10/16 06:50:53;;;;;;;8.60;4.93;;;;;;;3.48;100.00;101344.81;5033455;28;20127;-73
2023/10/16 06:53:23;;;;;;;7.55;4.60;;;;;;;3.42;100.00;101339.97;5018398;28;20029;-73
2023/10/16 06:55:52;;;;;;;7.70;3.83;;;;;;;3.42;100.00;101347.94;5017028;28;20048;-73
2023/10/16 06:58:20;;;;;;;11.45;4.15;;;;;;;3.34;100.00;101345.03;5016198;28;20477;-73
2023/10/16 07:00:49;;;;;;;8.13;2.92;;;;;;;3.21;100.00;101345.06;5000672;28;20463;-73
2023/10/16 07:03:18;;;;;;;8.70;4.65;;;;;;;3.26;100.00;101342.94;5033066;28;20025;-73
2023/10/16 07:05:43;;;;;;;8.13;3.92;;;;;;;3.35;100.00;101333.41;5000874;28;20030;-74
2023/10/16 07:08:17;;;;;;;9.70;4.55;;;;;;;3.41;100.00;101338.25;5030783;28;20041;-74
2023/10/16 07:10:49;;;;;;;8.10;3.75;;;;;;;3.35;100.00;101339.56;5016979;28;20034;-75
2023/10/16 07:13:26;;;;;;;11.73;3.78;;;;;;;3.35;100.00;101344.03;5016689;28;20057;-73
2023/10/16 07:16:03;;;;;;;8.63;3.85;;;;;;;3.36;100.00;101340.41;5001379;28;20059;-73
2023/10/16 07:18:34;;;;;;;8.60;3.47;;;;;;;3.52;100.00;101341.81;4996817;28;20044;-74
2023/10/16 07:23:39;;;;;;;7.90;3.67;;;;;;;3.62;100.00;101357.06;5032877;28;20364;-75
2023/10/16 07:26:06;;;;;;;7.50;3.35;;;;;;;3.61;100.00;101342.09;5032358;28;20049;-73
2023/10/16 07:28:33;;;;;;;11.80;3.70;;;;;;;3.62;100.00;101344.63;5014869;28;20396;-74
2023/10/16 07:31:02;;;;;;;7.05;3.67;;;;;;;3.73;100.00;101339.34;5032661;28;20033;-74
2023/10/16 07:33:28;;;;;;;6.47;3.55;;;;;;;3.97;100.00;101339.28;5016685;28;20049;-73
2023/10/16 07:35:58;;;;;;;9.75;3.88;;;;;;;4.09;100.00;101348.09;5016892;28;20132;-74
2023/10/16 07:38:28;;;;;;;5.65;3.10;;;;;;;4.20;100.00;101341.94;5000498;28;20124;-74
2023/10/16 07:40:56;;;;;;;5.85;3.42;;;;;;;4.29;100.00;101343.91;5014912;28;20045;-73
2023/10/16 07:43:27;;;;;;;10.93;3.83;;;;;;;4.35;100.00;101350.53;5000270;28;20131;-74
2023/10/16 07:48:56;;;;;;;8.35;4.43;;;;;;;4.55;100.00;101346.28;5029511;28;20041;-75
2023/10/16 07:51:25;;;;;;;6.78;3.00;;;;;;;4.63;100.00;101339.41;5016602;28;20040;-73
2023/10/16 07:53:52;;;;;;;5.70;2.65;;;;;;;4.62;100.00;101336.84;5031328;28;20555;-74
2023/10/16 07:59:06;;;;;;;5.72;2.50;;;;;;;4.44;100.00;101343.63;5016686;28;20043;-73
2023/10/16 08:01:41;;;;;;;4.07;2.47;;;;;;;4.44;100.00;101336.50;5000649;28;20041;-73
2023/10/16 08:06:48;;;;;;;5.32;2.45;;;;;;;4.40;100.00;101343.03;5015492;28;20029;-73
2023/10/16 08:11:58;;;;;;;6.03;2.58;;;;;;;4.37;100.00;101337.97;4997867;28;20392;-73
2023/10/16 08:14:26;;;;;;;5.40;2.60;;;;;;;4.30;100.00;101340.25;5025935;28;20042;-73
2023/10/16 08:16:58;;;;;;;6.82;2.45;;;;;;;4.29;100.00;101338.56;4999932;28;20037;-73
2023/10/16 08:19:31;;;;;;;5.57;2.20;;;;;;;4.35;100.00;101332.75;4999867;28;20537;-73
2023/10/16 08:22:00;;;;;;;4.05;2.25;;;;;;;4.43;100.00;101334.81;5015635;28;20037;-73
2023/10/16 08:24:25;;;;;;;3.83;2.30;;;;;;;4.57;100.00;101328.38;5015677;28;20033;-73
2023/10/16 08:26:52;;;;;;;3.55;2.40;;;;;;;4.71;100.00;101341.44;4998766;28;20045;-73
2023/10/16 08:29:20;;;;;;;6.00;2.60;;;;;;;5.02;100.00;101338.94;4999341;28;20037;-74
2023/10/16 08:32:43;;;;;;;6.38;2.20;;;;;;;5.62;100.00;101345.50;5016164;28;20036;-73
2023/10/16 08:34:40;;;;;;;3.95;2.28;;;;;;;6.37;100.00;101335.56;4999256;28;20559;-74
2023/10/16 08:37:08;;;;;;;4.80;2.42;;;;;;;6.80;100.00;101335.28;5016088;28;20476;-73
2023/10/16 08:39:49;;;;;;;5.00;2.47;;;;;;;7.76;100.00;101337.31;5052392;28;20124;-72
2023/10/16 08:42:18;;;;;;;5.80;2.00;;;;;;;9.12;100.00;101332.19;5021244;28;20478;-73
2023/10/16 08:44:51;;;;;;;4.70;2.00;;;;;;;10.17;100.00;101333.22;5035313;28;20033;-73
2023/10/16 08:47:26;;;;;;;4.20;1.95;;;;;;;10.93;100.00;101332.41;5028141;28;20044;-73
2023/10/16 08:49:54;;;;;;;5.35;2.20;;;;;;;11.18;100.00;101327.06;4999349;28;20455;-73
2023/10/16 08:52:21;;;;;;;4.07;1.85;;;;;;;11.55;100.00;101331.97;4999477;28;20036;-73
2023/10/16 08:55:00;;;;;;;2.85;1.90;;;;;;;11.93;100.00;101320.69;5030902;28;20037;-73
2023/10/16 08:57:26;;;;;;;3.17;2.03;;;;;;;12.28;100.00;101320.28;5015776;28;20040;-74
2023/10/16 09:00:00;;;;;;;3.80;1.40;;;;;;;12.22;100.00;101325.50;5015716;28;20399;-73
2023/10/16 09:02:29;;;;;;;3.25;1.23;;;;;;;12.12;100.00;101331.13;5032711;28;20095;-72
2023/10/16 09:04:55;;;;;;;2.38;1.48;;;;;;;11.45;100.00;101325.91;5033258;28;20033;-72
2023/10/16 09:07:24;;;;;;;3.28;1.40;;;;;;;11.51;100.00;101317.19;5003207;28;20094;-73
2023/10/16 09:09:53;;;;;;;2.53;1.65;;;;;;;11.50;100.00;101323.56;5002389;28;20041;-73
2023/10/16 09:12:27;;;;;;;3.17;1.88;;;;;;;11.44;100.00;101327.75;5002481;28;20518;-74
2023/10/16 09:15:05;;;;;;;2.15;1.38;;;;;;;11.02;100.00;101321.66;5002889;28;20061;-74
2023/10/16 09:17:33;;;;;;;6.05;1.80;;;;;;;10.83;100.00;101320.94;5035174;28;20037;-73
2023/10/16 09:19:58;;;;;;;3.80;1.52;;;;;;;11.33;100.00;101314.63;5001977;28;20097;-74
2023/10/16 09:22:26;;;;;;;2.50;1.83;;;;;;;11.78;100.00;101318.66;5002970;28;20037;-74
2023/10/16 09:24:52;;;;;;;2.70;1.60;;;;;;;11.87;100.00;101312.28;5019072;28;20037;-73
2023/10/16 09:27:39;;;;;;;3.25;1.40;;;;;;;11.82;100.00;101322.69;5002672;28;20072;-73
2023/10/16 09:30:14;;;;;;;5.13;2.17;;;;;;;11.69;100.00;101303.50;5035050;28;20048;-73
2023/10/16 09:32:42;;;;;;;2.83;1.77;;;;;;;11.52;100.00;101312.63;5034280;28;20432;-73
2023/10/16 09:35:14;;;;;;;2.97;1.63;;;;;;;11.55;100.00;101313.13;5018595;28;20123;-73
2023/10/16 09:37:40;;;;;;;2.85;1.63;;;;;;;11.73;100.00;101315.63;5001462;28;20469;-74
2023/10/16 09:40:35;;;;;;;3.35;1.88;;;;;;;11.93;100.00;101318.00;5001985;28;20426;-73
2023/10/16 09:43:06;;;;;;;6.72;2.00;;;;;;;11.15;100.00;101313.94;5034311;28;20514;-73
2023/10/16 09:45:33;;;;;;;2.30;1.50;;;;;;;10.97;100.00;101314.91;5002616;28;20037;-74
2023/10/16 09:48:07;;;;;;;4.80;1.90;;;;;;;11.91;100.00;101311.94;4985300;28;20064;-73
2023/10/16 09:50:37;;;;;;;2.85;1.80;;;;;;;13.07;99.64;101320.25;4987611;28;20025;-74
2023/10/16 09:53:09;;;;;;;3.47;1.55;;;;;;;13.71;94.68;101319.13;5007946;28;20042;-72
2023/10/16 09:55:39;;;;;;;3.10;1.60;;;;;;;13.93;86.81;101326.34;4998897;28;20030;-74
2023/10/16 09:58:08;;;;;;;3.17;1.73;;;;;;;13.96;85.22;101312.44;5014956;28;20033;-74
2023/10/16 10:00:39;;;;;;;2.58;1.58;;;;;;;13.82;85.62;101324.09;5001452;28;20103;-74
2023/10/16 10:03:11;;;;;;;5.22;2.33;;;;;;;13.51;89.43;101326.88;5030343;28;20033;-75
2023/10/16 10:11:39;;;;;;;2.35;1.70;;;;;;;13.45;88.72;101330.31;5004932;28;20046;-75
2023/10/16 10:16:57;;;;;;;3.00;1.90;;;;;;;14.44;82.86;101323.75;5012913;28;20044;-75
2023/10/16 10:19:36;;;;;;;4.40;1.58;;;;;;;14.76;80.89;101326.28;5001438;28;20178;-75
2023/10/16 10:22:16;;;;;;;2.45;1.80;;;;;;;14.77;76.75;101326.09;5002485;28;21181;-75
2023/10/16 10:25:17;;;;;;;3.95;1.77;;;;;;;14.41;80.82;101320.59;5019245;28;20033;-75
2023/10/16 10:27:44;;;;;;;5.35;1.92;;;;;;;14.37;76.52;101325.53;5033449;28;20450;-75
2023/10/16 10:30:16;;;;;;;4.15;1.90;;;;;;;14.45;76.19;101328.16;5001749;28;20037;-74
2023/10/16 10:32:43;;;;;;;4.18;1.85;;;;;;;14.48;75.49;101310.69;5002357;28;20026;-75
2023/10/16 10:35:38;;;;;;;4.07;1.55;;;;;;;14.85;79.22;101322.44;5018016;28;20071;-75
2023/10/16 10:38:18;;;;;;;3.00;1.50;;;;;;;15.04;75.55;101299.31;4988826;28;20037;-75
2023/10/16 10:41:06;;;;;;;4.13;1.40;;;;;;;15.01;76.40;101303.25;5017885;28;20040;-75
2023/10/16 10:43:48;;;;;;;3.78;1.58;;;;;;;14.87;72.38;101307.69;5017507;28;20428;-75
2023/10/16 10:46:27;;;;;;;4.93;1.55;;;;;;;15.13;74.47;101300.88;5000181;28;20075;-76
2023/10/16 10:48:54;;;;;;;3.80;1.50;;;;;;;15.26;73.49;101309.13;5018033;28;20111;-75
2023/10/16 10:51:21;;;;;;;3.88;1.58;;;;;;;15.70;76.44;101307.28;5017627;28;20108;-75
2023/10/16 10:53:57;;;;;;;3.55;1.85;;;;;;;15.93;72.09;101307.88;5016237;28;20069;-75
2023/10/16 10:56:48;;;;;;;4.35;1.38;;;;;;;15.88;71.26;101304.03;4985189;28;20111;-75
2023/10/16 10:59:39;;;;;;;5.75;1.30;;;;;;;15.87;67.58;101305.09;5018274;28;20041;-75
2023/10/16 11:04:46;;;;;;;2.53;1.08;;;;;;;16.19;64.84;101300.91;5029225;28;20488;-75
2023/10/16 11:08:17;;;;;;;5.43;1.60;;;;;;;16.10;61.35;101299.41;5017332;28;20464;-75
2023/10/16 11:10:01;;;;;;;3.15;1.10;;;;;;;15.96;63.35;101291.19;5030472;28;20128;-75
2023/10/16 11:12:30;;;;;;;4.38;2.28;;;;;;;15.86;61.65;101287.16;5000407;28;20029;-75
2023/10/16 11:14:56;;;;;;;3.60;1.10;;;;;;;15.49;63.96;101292.66;5016550;28;20061;-75
2023/10/16 11:17:37;;;;;;;6.47;2.45;;;;;;;15.17;66.68;101281.31;5001002;28;20171;-75
2023/10/16 11:22:48;;;;;;;3.75;1.20;;;;;;;14.37;68.05;101273.28;4999358;28;20472;-75
2023/10/16 11:25:14;;;;;;;4.15;1.33;;;;;;;14.36;69.14;101271.63;4997105;28;20064;-75
2023/10/16 11:27:43;;;;;;;4.13;1.10;;;;;;;14.53;70.24;101270.44;4996400;28;20069;-75
2023/10/16 11:30:14;;;;;;;3.80;1.20;;;;;;;14.49;71.21;101264.50;5015719;28;20025;-75
2023/10/16 11:32:45;;;;;;;3.35;1.50;;;;;;;14.49;70.96;101261.78;5017036;28;20034;-75
2023/10/16 11:35:18;;;;;;;4.38;1.60;;;;;;;14.54;68.95;101263.13;5016865;28;20317;-74
2023/10/16 11:37:52;;;;;;;8.02;2.83;;;;;;;14.39;69.16;101258.53;5016539;28;20120;-73
2023/10/16 11:40:18;;;;;;;9.77;4.60;;;;;;;14.45;68.91;101254.25;5000352;28;20049;-75
2023/10/16 11:42:48;;;;;;;6.43;2.20;;;;;;;14.43;70.17;101251.72;5030989;28;20401;-75
2023/10/16 11:45:20;;;;;;;4.50;2.05;;;;;;;14.37;71.42;101248.94;5013114;28;20111;-75
2023/10/16 11:50:40;;;;;;;4.60;1.50;;;;;;;13.97;72.42;101238.44;5032074;28;20064;-75
2023/10/16 11:53:09;;;;;;;2.53;1.25;;;;;;;13.91;74.75;101236.47;5016438;28;20095;-75
2023/10/16 11:55:38;;;;;;;3.88;1.30;;;;;;;13.93;74.47;101237.13;4999598;28;20049;-75
2023/10/16 11:58:06;;;;;;;5.07;1.40;;;;;;;14.12;76.38;101221.38;4999713;28;20092;-75
2023/10/16 12:00:35;;;;;;;3.70;1.27;;;;;;;14.24;75.87;101226.13;5015918;28;20033;-73
2023/10/16 12:03:07;;;;;;;5.32;2.10;;;;;;;14.39;75.31;101225.25;5014148;28;20033;-74
2023/10/16 12:05:34;;;;;;;4.88;1.70;;;;;;;14.32;73.85;101213.53;5000686;28;20041;-73
2023/10/16 12:08:10;;;;;;;3.97;1.35;;;;;;;14.29;75.16;101222.84;5048695;28;20530;-75
2023/10/16 12:10:36;;;;;;;2.95;1.30;;;;;;;14.29;73.94;101214.75;5016192;28;20083;-74
2023/10/16 12:13:03;;;;;;;5.25;1.35;;;;;;;14.53;72.45;101210.88;5029117;28;20033;-74
2023/10/16 12:15:29;;;;;;;5.13;1.55;;;;;;;14.84;72.69;101204.31;5029518;28;20056;-74
2023/10/16 12:17:55;;;;;;;5.53;1.63;;;;;;;15.08;69.29;101208.50;5014050;28;20037;-75
2023/10/16 12:20:26;;;;;;;5.20;1.40;;;;;;;15.29;67.91;101205.78;5003464;28;20171;-74
2023/10/16 12:22:52;;;;;;;3.70;1.42;;;;;;;15.68;67.33;101204.41;5014677;28;20021;-74
2023/10/16 12:25:21;;;;;;;4.97;1.48;;;;;;;16.23;66.39;101202.66;5032405;28;20034;-75
2023/10/16 12:27:50;;;;;;;6.18;2.50;;;;;;;17.02;63.45;101197.66;5031370;28;20022;-74
2023/10/16 12:30:17;;;;;;;4.07;1.65;;;;;;;-146.42;100.00;66673.91;5031903;28;20061;-74
2023/10/16 12:32:42;;;;;;;4.18;2.25;;;;;;;16.73;60.13;101191.53;4996003;28;20072;-75
2023/10/16 12:35:11;;;;;;;4.85;1.38;;;;;;;15.92;64.39;101191.44;5014538;28;20111;-74
2023/10/16 12:37:38;;;;;;;2.92;1.40;;;;;;;15.59;66.36;101182.03;5031792;28;20037;-74
2023/10/16 12:42:53;;;;;;;5.30;2.22;;;;;;;16.98;62.03;101191.78;5022213;28;20025;-74
2023/10/16 12:45:25;;;;;;;3.17;1.65;;;;;;;17.49;58.70;101188.47;5032044;28;20025;-74
2023/10/16 12:47:53;;;;;;;5.05;2.20;;;;;;;17.62;56.28;101176.72;5001660;28;20137;-74
2023/10/16 12:50:24;;;;;;;3.50;1.80;;;;;;;17.96;56.21;101172.88;5008725;28;20033;-74
2023/10/16 12:52:54;;;;;;;6.43;2.30;;;;;;;18.21;55.65;101175.72;4999722;28;20566;-75
2023/10/16 12:55:22;;;;;;;2.65;1.33;;;;;;;17.26;56.62;101172.59;5017184;28;20040;-74
2023/10/16 12:57:48;;;;;;;4.15;1.48;;;;;;;17.27;57.15;101167.97;5003538;28;20503;-74
2023/10/16 13:00:18;;;;;;;5.10;1.88;;;;;;;18.42;54.78;101158.25;5000980;28;20104;-74
2023/10/16 13:02:45;;;;;;;5.05;1.63;;;;;;;19.31;52.29;101169.97;5019834;28;20040;-75
2023/10/16 13:05:18;;;;;;;5.15;1.80;;;;;;;19.92;50.27;101153.84;5012554;28;20036;-75
2023/10/16 13:07:47;;;;;;;4.50;1.58;;;;;;;19.87;48.72;101168.22;4993427;28;20033;-74
2023/10/16 13:10:26;;;;;;;4.45;1.92;;;;;;;19.87;47.24;101160.03;5002509;28;20041;-74
2023/10/16 13:12:52;;;;;;;6.95;2.00;;;;;;;19.62;50.20;101160.03;5032900;28;20037;-74
2023/10/16 13:15:31;;;;;;;4.53;1.98;;;;;;;17.80;53.06;101159.75;5000617;28;20033;-74
2023/10/16 13:17:58;;;;;;;5.40;2.28;;;;;;;16.44;57.89;101171.00;5016037;28;20488;-74
2023/10/16 13:20:32;;;;;;;4.35;1.70;;;;;;;15.78;60.82;101158.81;5016901;28;20495;-73
2023/10/16 13:22:58;;;;;;;5.22;3.20;;;;;;;15.94;62.11;101156.81;5048543;28;20081;-74
2023/10/16 13:25:31;;;;;;;5.72;3.00;;;;;;;16.53;60.63;101153.47;5000716;28;20387;-73
2023/10/16 13:27:58;;;;;;;7.13;4.07;;;;;;;16.76;59.44;101150.38;5033682;28;20107;-74
2023/10/16 13:30:25;;;;;;;8.18;3.55;;;;;;;17.84;56.28;101141.16;5017585;28;20087;-73
2023/10/16 13:32:52;;;;;;;6.03;2.58;;;;;;;18.22;54.94;101133.00;5019149;28;20068;-73